This is the latest recevied weather packets stored in our database for station/object BARLOW-WX. If no packets are shown the sender has not sent any weather packets the latest 10 day(s).
| Time | Temp. | Humidity | Pressure | Rain* | Wind** | Luminosity | Snow |
|---|---|---|---|---|---|---|---|
| 1787777182 | 22.78° C | 81% | 984.2 hPa | 0 mm | - | - | - |
| 1787776282 | 23.89° C | 81% | 983.8 hPa | 0 mm | - | - | - |
| 1787775382 | 23.89° C | 81% | 983.9 hPa | 0 mm | - | - | - |
| 1787774482 | 23.89° C | 82% | 984 hPa | 0 mm | - | - | - |
| 1787773582 | 23.89° C | 85% | 984 hPa | 0 mm | - | - | - |
| 1787772991 | 23.89° C | 85% | 984 hPa | 0 mm | - | - | - |
| 1787771782 | 22.78° C | 85% | 984 hPa | 0 mm | - | - | - |
| 1787770883 | 22.78° C | 85% | 984 hPa | 0 mm | - | - | - |
| 1787769982 | 22.22° C | 76% | 984.4 hPa | 0.51 mm | - | - | - |
| 1787769081 | 23.33° C | 76% | 984.7 hPa | 1.78 mm | - | - | - |
| 1787768181 | 22.78° C | 76% | 984.7 hPa | 1.78 mm | - | - | - |
| 1787767282 | 24.44° C | 76% | 984.7 hPa | 1.78 mm | - | - | - |
| 1787766380 | 23.33° C | 69% | 985.4 hPa | 0 mm | - | - | - |
| 1787765481 | 23.89° C | 67% | 985.2 hPa | 0 mm | - | - | - |
| 1787764581 | 25° C | 67% | 985.2 hPa | 0 mm | - | - | - |
| 1787763685 | 24.44° C | 67% | 985.2 hPa | 0 mm | - | - | - |
| 1787762780 | 24.44° C | 67% | 985.2 hPa | 0 mm | - | - | - |
| 1787761880 | 24.44° C | 67% | 985.2 hPa | 0 mm | - | - | - |
| 1787760981 | 23.89° C | 67% | 985.2 hPa | 0 mm | - | - | - |
| 1787760082 | 23.89° C | 67% | 985.2 hPa | 0 mm | - | - | - |
| 1787759181 | 23.33° C | 69% | 985.6 hPa | 0 mm | - | - | - |
| 1787758280 | 22.78° C | 60% | 986.1 hPa | 0 mm | - | - | - |
| 1787757379 | 23.33° C | 60% | 986.1 hPa | 0 mm | - | - | - |
| 1787756482 | 22.78° C | 60% | 986.1 hPa | 0 mm | - | - | - |
| 1787755579 | 22.22° C | 70% | 985.4 hPa | 0 mm | - | - | - |
* Rain latest hour (hover to see other rain measurements)
** Current wind speed in m/s (hover to see current wind gust speed)